Channel Islands National Park, CA

2:51 PM PDT on September 19, 2014 (GMT -0700)
WFO LOX | Change Station
CLOSE
Current Station
Personal Weather Station
Location: Oxnard, CA
Elevation: 57 ft
Nearby Weather Stations

Elev 57 ft 34.21 °N, 119.14 °W | Updated 1 minute ago

Scattered Clouds
Scattered Clouds
77.0 °F
Feels Like 79 °F
N
7.0
Wind Variable Wind from SW
Gusts 9.0 mph

Today
High -- | Low -- °F
--% Chance of Precip.
Yesterday
High -- | Low -- °F
Precip. -- in
6:42 AM 6:57 PM
Waning Crescent, 16% visible
Pressure 29.88 in
Visibility 10.0 miles
Clouds Scattered Clouds 2600 ft
Heat Index 79 °F
Dew Point 61 °F
Humidity 58%
Rainfall 0.00 in
Snow Depth 0 in , 1 in , 1 in
UV 7 out of 12
Pollen 6.60 out of 12
Ozone Good
PM2.5 Good
Flu Activity Not available.
METAR KOXR 191951Z 24007KT 10SM SCT026 24/16 A2989 RMK AO2 SLP119 T02390156

More Conditions Fewer Conditions

Pressure 29.88 in
Visibility 10.0 miles
Clouds Scattered Clouds 2600 ft
Heat Index 79 °F
Dew Point 61 °F
Humidity 58%
Rainfall 0.00 in
Snow Depth 0 in , 1 in , 1 in
UV 7 out of 12
Pollen 6.60 out of 12
Ozone Good
PM2.5 Good
Flu Activity Not available.
METAR KOXR 191951Z 24007KT 10SM SCT026 24/16 A2989 RMK AO2 SLP119 T02390156

More Conditions Fewer Conditions

10-Day Weather Forecast

Almanac

Astronomy

Sep. 19, 2014 Rise Set
Actual Time 6:42 AM PDT 6:57 PM PDT
Civil Twilight 6:17 AM PDT 7:22 PM PDT
Nautical Twilight 5:48 AM PDT 7:51 PM PDT
Astronomical Twilight 5:18 AM PDT 8:21 PM PDT
Moon 2:41 AM PDT 4:21 PM PDT
Length of Visible Light 13h 04m
Length of Day
12h 14m
Tomorrow will be 2m 7s shorter.
Waning Crescent, 16% of the Moon is Illuminated
Today
Waning Crescent
Sep 24
New
Oct 1
First Quarter
Oct 8
Full
Oct 15
Last Quarter

Today's Extremes

State Highs State Lows

Community

WunderPhotos

Upload Photos

1,754,703 photos uploaded!

WunderBlogs® & News

By Dr. Jeff Masters
Director of Meteorology, Weather Underground
By Kari Strenfel
Meteorologist, Weather Underground
By Christopher C. Burt
Weather Historian, Weather Underground
September 19, 2014
September 19, 2014
September 19, 2014

Nearby

Air Quality

  Air Quality AQ Index Pollutant
Yesterday Good
PM2.5
Yesterday Good
OZONE
Current Good
PM2.5
Current Good
OZONE
Friday Good
OZONE
Friday Good
PM2.5
Saturday Good
OZONE
Saturday Good
PM2.5
Sunday Moderate
PM2.5
Sunday Good
OZONE
Monday Moderate
PM2.5
Monday Good
OZONE
Tuesday Moderate
PM2.5
Tuesday Good
OZONE
Wednesday Moderate
PM2.5
Wednesday Good
OZONE

Snow Depth

Station Depth Elevation
Leavitt Meadows 0 in 7200 ft
Summit Meadow 0 in 9122 ft
CSS Lab 1 in 6900 ft
Adin Mountain 1 in 6200 ft

Earthquake Activity

City Distance Mag. Time & Date
Corcoran, California 131 miles 3.0 3:59 PM PDT
2014-09-18
Minimum magnitude displayed is 2.5.

Coastal Water Temperatures

Place Temperature
Santa Monica Pier 70.0 °F
Los Angeles, CA 68.0 °F
Port San Luis, CA 60.1 °F

Nearby Weather Stations